Time;durP1;ratioP1;P1;durP2;ratioP2;P2;SDS_P1;SDS_P2;PMS_P1;PMS_P2;Temp;Humidity;BMP_temperature;BMP_pressure;BME280_temperature;BME280_humidity;BME280_pressure;Samples;Min_cycle;Max_cycle;Signal;HPM_P1;HPM_P2
2023/01/09 00:00:18;;;;;;;5.13;4.07;;;7.00;99.90;;;6.05;100.00;95518.81;5006889;28;20025;-38
2023/01/09 00:02:44;;;;;;;5.80;3.92;;;6.90;99.90;;;6.17;100.00;95536.50;5010845;28;20041;-38
2023/01/09 00:05:13;;;;;;;5.00;3.92;;;6.90;99.90;;;6.21;100.00;95542.44;5001669;28;20076;-39
2023/01/09 00:07:39;;;;;;;4.50;3.80;;;6.90;99.90;;;6.23;100.00;95546.69;5014112;28;20103;-38
2023/01/09 00:10:06;;;;;;;4.60;3.78;;;6.90;99.90;;;6.21;100.00;95545.06;5018356;28;20400;-38
2023/01/09 00:12:33;;;;;;;4.50;3.60;;;6.90;99.90;;;6.17;100.00;95530.44;5006843;28;20040;-38
2023/01/09 00:14:58;;;;;;;5.43;3.70;;;6.90;99.90;;;6.24;100.00;95539.66;5006722;28;20030;-38
2023/01/09 00:17:24;;;;;;;5.22;3.95;;;6.90;99.90;;;6.26;100.00;95541.31;5009146;28;20100;-38
2023/01/09 00:19:50;;;;;;;4.28;3.33;;;7.00;99.90;;;6.30;100.00;95550.69;5006233;28;21212;-38
2023/01/09 00:22:15;;;;;;;4.75;3.53;;;7.00;99.90;;;6.30;100.00;95545.47;5011728;28;20494;-38
2023/01/09 00:24:41;;;;;;;9.18;3.58;;;7.00;99.90;;;6.30;100.00;95540.22;5013772;28;20495;-38
2023/01/09 00:27:07;;;;;;;4.28;3.40;;;7.00;99.90;;;6.33;100.00;95535.75;5009156;28;20044;-38
2023/01/09 00:29:33;;;;;;;4.68;3.35;;;7.00;99.90;;;6.27;100.00;95527.28;5012887;28;20248;-39
2023/01/09 00:31:58;;;;;;;4.28;2.90;;;7.00;99.90;;;6.36;100.00;95543.47;5000457;28;20049;-38
2023/01/09 00:34:25;;;;;;;3.90;2.75;;;7.00;99.90;;;6.37;100.00;95542.53;5006773;28;20071;-39
2023/01/09 00:36:55;;;;;;;4.53;2.53;;;7.00;99.90;;;6.41;100.00;95549.31;5016334;28;20576;-38
2023/01/09 00:39:22;;;;;;;3.58;2.30;;;7.00;99.90;;;6.38;100.00;95539.00;5001426;28;20036;-39
2023/01/09 00:41:52;;;;;;;3.03;2.03;;;7.10;99.90;;;6.45;100.00;95545.63;5013435;28;20202;-38
2023/01/09 00:44:34;;;;;;;2.90;1.90;;;7.10;99.90;;;6.48;100.00;95545.47;5008911;28;20033;-39
2023/01/09 00:47:07;;;;;;;2.33;1.88;;;7.10;99.90;;;6.49;100.00;95541.91;5009099;28;20046;-39
2023/01/09 00:49:35;;;;;;;2.47;1.70;;;7.20;99.90;;;6.47;100.00;95533.28;5007999;28;20473;-39
2023/01/09 00:52:03;;;;;;;1.80;1.50;;;7.20;99.90;;;6.51;100.00;95545.28;5027373;28;20932;-39
2023/01/09 00:54:29;;;;;;;2.38;1.75;;;7.20;99.90;;;6.52;100.00;95548.78;5013898;28;20032;-39
2023/01/09 00:56:56;;;;;;;3.00;1.45;;;7.20;99.90;;;6.50;100.00;95531.38;5003389;28;20030;-39
2023/01/09 00:59:22;;;;;;;1.83;1.30;;;7.20;99.90;;;6.52;100.00;95544.38;5009432;28;20026;-38
2023/01/09 01:01:47;;;;;;;2.78;1.30;;;7.20;99.90;;;6.46;100.00;95537.69;5009417;28;20033;-38
2023/01/09 01:09:42;;;;;;;1.40;1.17;;;7.20;99.90;;;6.50;100.00;95541.84;5012156;28;20055;-38
2023/01/09 01:12:07;;;;;;;1.40;1.13;;;7.20;99.90;;;6.53;100.00;95532.97;5014286;28;20096;-39
2023/01/09 01:14:35;;;;;;;1.52;0.90;;;7.20;99.90;;;6.52;100.00;95528.69;5008426;28;20108;-38
2023/01/09 01:17:02;;;;;;;0.70;0.63;;;7.20;99.90;;;6.51;100.00;95534.81;5011630;28;20469;-39
2023/01/09 01:19:28;;;;;;;0.93;0.90;;;7.20;99.90;;;6.50;100.00;95535.75;5016447;28;20069;-39
2023/01/09 01:21:54;;;;;;;0.85;0.80;;;7.20;99.90;;;6.51;100.00;95534.81;5003044;28;20172;-39
2023/01/09 01:24:19;;;;;;;1.13;0.65;;;7.20;99.90;;;6.45;100.00;95519.44;5010260;28;20111;-38
2023/01/09 01:26:46;;;;;;;0.73;0.70;;;7.20;99.90;;;6.49;100.00;95529.66;5010794;28;20120;-39
2023/01/09 01:29:12;;;;;;;1.70;0.90;;;7.20;99.90;;;6.48;100.00;95529.75;4998630;28;20029;-39
2023/01/09 01:31:38;;;;;;;0.65;0.50;;;7.20;99.90;;;6.34;100.00;95501.66;5000776;28;20041;-38
2023/01/09 01:34:04;;;;;;;0.77;0.60;;;7.20;99.90;;;6.51;100.00;95524.34;5008133;28;20041;-39
2023/01/09 01:36:29;;;;;;;0.80;0.77;;;7.20;99.90;;;6.53;100.00;95521.66;5016420;28;20060;-39
2023/01/09 01:38:55;;;;;;;1.83;0.70;;;7.20;99.90;;;6.51;100.00;95508.63;5008593;28;20663;-39
2023/01/09 01:41:30;;;;;;;0.65;0.50;;;7.20;99.90;;;6.50;100.00;95509.56;5016475;28;20397;-38
2023/01/09 01:44:00;;;;;;;0.55;0.40;;;7.20;99.90;;;6.48;100.00;95514.06;5013727;28;20084;-39
2023/01/09 01:46:30;;;;;;;2.42;0.50;;;7.10;99.90;;;6.47;100.00;95520.19;5013854;28;20512;-39
2023/01/09 01:49:10;;;;;;;0.60;0.52;;;7.10;99.90;;;6.48;100.00;95517.50;5003812;28;20098;-39
2023/01/09 01:51:43;;;;;;;0.40;0.40;;;7.10;99.90;;;6.43;100.00;95519.50;5011305;28;20060;-39
2023/01/09 01:54:18;;;;;;;0.57;0.50;;;7.10;99.90;;;6.26;100.00;95494.19;5018077;28;20063;-39
2023/01/09 01:56:49;;;;;;;0.55;0.50;;;7.10;99.90;;;6.39;100.00;95525.84;5019802;28;20025;-39
2023/01/09 01:59:32;;;;;;;0.60;0.50;;;7.00;99.90;;;6.33;100.00;95541.00;5020834;28;20730;-39
2023/01/09 02:02:00;;;;;;;1.38;0.60;;;7.00;99.90;;;6.37;100.00;95526.81;5037073;28;20140;-39
2023/01/09 02:04:27;;;;;;;1.40;0.43;;;7.00;99.90;;;6.38;100.00;95525.91;5014021;28;20034;-38
2023/01/09 02:06:57;;;;;;;0.52;0.50;;;7.00;99.90;;;6.36;100.00;95530.38;5001695;28;20118;-39
2023/01/09 02:09:24;;;;;;;1.33;0.47;;;7.00;99.90;;;6.34;100.00;95521.75;4988205;28;20561;-39
2023/01/09 02:11:55;;;;;;;2.05;0.60;;;7.00;99.90;;;6.38;100.00;95528.53;4990912;28;20120;-39
2023/01/09 02:14:26;;;;;;;0.47;0.32;;;7.00;99.90;;;6.38;100.00;95529.34;4983035;28;20099;-39
2023/01/09 02:17:23;;;;;;;0.63;0.50;;;7.00;99.90;;;6.35;100.00;95516.41;4986954;28;20127;-39
2023/01/09 02:20:23;;;;;;;0.40;0.40;;;7.00;99.90;;;6.33;100.00;95525.28;4985664;28;20042;-39
2023/01/09 02:23:31;;;;;;;1.38;0.38;;;7.00;99.90;;;6.34;100.00;95527.00;5017694;28;20059;-39
2023/01/09 02:26:30;;;;;;;0.35;0.35;;;7.00;99.90;;;6.34;100.00;95513.91;4984154;28;20044;-39
2023/01/09 02:29:44;;;;;;;0.40;0.40;;;7.00;99.90;;;6.30;100.00;95511.44;4985723;28;20064;-39
2023/01/09 02:32:30;;;;;;;0.50;0.40;;;7.00;99.90;;;6.29;100.00;95511.50;5012985;22;20037;-51
2023/01/09 02:35:51;;;;;;;0.50;0.50;;;7.00;99.90;;;6.27;100.00;95510.72;4996677;28;20060;-51
2023/01/09 02:38:59;;;;;;;0.40;0.32;;;6.90;99.90;;;6.28;100.00;95517.66;5016650;28;20402;-52
2023/01/09 02:41:38;;;;;;;0.30;0.30;;;6.90;99.90;;;6.30;100.00;95529.75;5020350;28;20064;-52
2023/01/09 02:44:20;;;;;;;0.75;0.50;;;6.90;99.90;;;6.33;100.00;95530.53;4998707;28;20432;-51
2023/01/09 02:46:45;;;;;;;0.35;0.35;;;6.90;99.90;;;6.32;100.00;95519.22;5012611;28;20049;-52
2023/01/09 02:49:14;;;;;;;0.30;0.30;;;7.00;99.90;;;6.14;100.00;95497.41;5013525;28;20536;-50
2023/01/09 02:52:34;;;;;;;0.43;0.30;;;7.00;99.90;;;6.28;100.00;95533.34;4992750;28;20040;-51
2023/01/09 02:56:06;;;;;;;2.47;0.30;;;7.00;99.90;;;6.28;100.00;95529.00;4985563;28;20037;-53
2023/01/09 02:59:04;;;;;;;0.30;0.30;;;6.90;99.90;;;6.22;100.00;95531.06;4986216;28;20089;-52
2023/01/09 03:01:58;;;;;;;1.02;0.30;;;6.90;99.90;;;6.21;100.00;95529.34;4992563;28;20065;-52
2023/01/09 03:04:56;;;;;;;0.40;0.30;;;6.90;99.90;;;6.26;100.00;95546.53;4974229;28;20124;-48
2023/01/09 03:07:29;;;;;;;0.30;0.25;;;6.90;99.90;;;6.22;100.00;95539.75;4997659;28;21759;-52
2023/01/09 03:09:59;;;;;;;;;;;6.90;99.90;;;6.27;100.00;95557.84;4990815;28;20042;-50
2023/01/09 03:12:30;;;;;;;0.20;0.20;;;7.00;99.90;;;6.34;100.00;95566.25;4991412;28;19988;-52
2023/01/09 03:14:59;;;;;;;0.30;0.30;;;7.00;99.90;;;6.34;100.00;95561.88;4974073;28;20343;-52
2023/01/09 03:17:36;;;;;;;1.27;0.40;;;7.00;99.90;;;6.37;100.00;95555.63;4973502;28;20064;-51
2023/01/09 03:20:06;;;;;;;1.08;0.32;;;7.00;99.90;;;6.38;100.00;95549.47;4992403;28;20742;-53
2023/01/09 03:22:31;;;;;;;0.20;0.20;;;7.00;99.90;;;6.35;100.00;95531.28;4988367;28;20045;-47
2023/01/09 03:24:57;;;;;;;0.30;0.20;;;7.00;99.90;;;6.32;100.00;95545.38;5007018;28;20095;-52
2023/01/09 03:27:23;;;;;;;1.08;0.30;;;7.00;99.90;;;6.27;100.00;95558.69;5011464;28;20112;-52
2023/01/09 03:29:50;;;;;;;0.45;0.30;;;6.90;99.90;;;6.20;100.00;95564.31;5000417;28;20440;-51
2023/01/09 03:32:15;;;;;;;0.73;0.28;;;6.90;99.90;;;6.14;100.00;95570.69;5002063;28;20052;-52
2023/01/09 03:34:41;;;;;;;0.28;0.28;;;6.80;99.90;;;6.08;100.00;95591.91;4990466;28;20042;-51
2023/01/09 03:37:07;;;;;;;0.40;0.30;;;6.70;99.90;;;6.07;100.00;95595.47;4994403;28;20755;-53
2023/01/09 03:39:32;;;;;;;0.47;0.20;;;6.70;99.90;;;6.10;100.00;95603.16;5000421;28;20030;-48
2023/01/09 03:41:58;;;;;;;0.20;0.20;;;6.80;99.90;;;6.10;100.00;95613.63;4994702;28;20311;-49
2023/01/09 03:44:24;;;;;;;0.32;0.20;;;6.80;99.90;;;6.08;100.00;95629.41;4993787;28;20029;-51
2023/01/09 03:46:50;;;;;;;0.10;0.10;;;6.80;99.90;;;6.09;100.00;95635.50;4987051;28;20690;-52
2023/01/09 03:49:16;;;;;;;0.82;0.28;;;6.80;99.90;;;6.09;100.00;95644.19;4991547;28;20536;-52
2023/01/09 03:51:42;;;;;;;0.45;0.30;;;6.80;99.90;;;6.08;100.00;95657.34;4989495;28;21597;-52
2023/01/09 03:54:08;;;;;;;0.68;0.22;;;6.80;99.90;;;6.06;100.00;95639.09;4991309;28;20029;-52
2023/01/09 03:56:33;;;;;;;1.63;0.32;;;6.80;99.90;;;6.07;100.00;95666.13;4988083;28;20121;-51
2023/01/09 03:58:59;;;;;;;0.38;0.30;;;6.80;99.90;;;5.87;100.00;95644.31;4996047;28;20489;-49
2023/01/09 04:01:25;;;;;;;0.60;0.20;;;6.70;99.90;;;6.05;100.00;95683.66;5001432;28;20733;-51
2023/01/09 04:03:50;;;;;;;0.52;0.22;;;6.70;99.90;;;6.01;100.00;95698.66;5012357;28;20114;-52
2023/01/09 04:06:16;;;;;;;0.88;0.25;;;6.70;99.90;;;5.99;100.00;95723.19;5002143;28;20041;-51
2023/01/09 04:08:42;;;;;;;0.20;0.10;;;6.70;99.90;;;5.92;100.00;95712.97;5007947;28;20120;-51
2023/01/09 04:11:08;;;;;;;0.55;0.20;;;6.60;99.90;;;5.86;100.00;95726.31;5009707;28;20052;-51
2023/01/09 04:13:34;;;;;;;0.43;0.20;;;6.60;99.90;;;5.89;100.00;95734.03;5009066;28;20516;-52
2023/01/09 04:15:59;;;;;;;0.15;0.15;;;6.50;99.90;;;5.79;100.00;95756.28;5007026;28;20025;-53
2023/01/09 04:18:25;;;;;;;1.00;0.20;;;6.50;99.90;;;5.68;100.00;95771.59;5011641;28;20030;-50
2023/01/09 04:20:51;;;;;;;0.50;0.10;;;6.40;99.90;;;5.59;100.00;95766.78;5007773;28;20041;-51
2023/01/09 04:23:16;;;;;;;0.32;0.20;;;6.40;99.90;;;5.53;100.00;95770.53;5007056;28;20461;-51
2023/01/09 04:25:42;;;;;;;0.70;0.20;;;6.30;99.90;;;5.45;100.00;95759.53;5006075;28;20038;-52
2023/01/09 04:28:08;;;;;;;0.10;0.10;;;6.20;99.90;;;5.31;100.00;95768.81;5011830;28;20025;-50
2023/01/09 04:30:34;;;;;;;0.25;0.10;;;6.10;99.90;;;5.20;100.00;95771.00;5010347;28;20457;-51
2023/01/09 04:32:59;;;;;;;0.57;0.30;;;6.00;99.90;;;5.13;100.00;95786.13;4991018;28;20048;-49
2023/01/09 04:35:25;;;;;;;0.10;0.10;;;5.90;99.90;;;5.05;100.00;95793.41;4995443;28;20029;-51
2023/01/09 04:37:51;;;;;;;0.55;0.10;;;5.80;99.90;;;5.00;100.00;95794.50;4993016;28;20052;-50
2023/01/09 04:40:17;;;;;;;0.85;0.25;;;5.80;99.90;;;4.97;100.00;95788.50;4996439;28;20304;-50
2023/01/09 04:42:43;;;;;;;0.10;0.10;;;5.70;99.90;;;4.92;100.00;95793.06;4990784;28;20034;-52
2023/01/09 04:45:10;;;;;;;1.40;0.20;;;5.70;99.90;;;4.83;100.00;95788.22;4991021;28;20141;-51
2023/01/09 04:47:37;;;;;;;0.63;0.20;;;5.60;99.90;;;4.61;100.00;95779.50;4992736;28;20033;-52
2023/01/09 04:50:03;;;;;;;0.13;0.13;;;5.50;99.90;;;4.70;100.00;95794.81;4990986;28;20045;-51
2023/01/09 04:52:29;;;;;;;0.35;0.20;;;5.50;99.90;;;4.67;100.00;95802.78;4992929;28;20470;-51
2023/01/09 04:54:55;;;;;;;0.93;0.20;;;5.50;99.90;;;4.70;100.00;95800.03;4989441;28;20271;-50
2023/01/09 04:57:20;;;;;;;0.88;0.10;;;5.50;99.90;;;4.68;100.00;95814.91;4995327;28;20764;-47
2023/01/09 04:59:46;;;;;;;0.50;0.20;;;5.40;99.90;;;4.64;100.00;95798.53;4991104;28;20033;-51
2023/01/09 05:02:12;;;;;;;2.33;0.22;;;5.40;99.90;;;4.60;100.00;95807.38;4993880;28;20040;-52
2023/01/09 05:04:38;;;;;;;0.17;0.10;;;5.40;99.90;;;4.62;100.00;95810.78;4986856;28;20041;-49
2023/01/09 05:07:03;;;;;;;0.13;0.10;;;5.40;99.90;;;4.59;100.00;95803.06;4983071;28;20568;-49
2023/01/09 05:09:29;;;;;;;0.30;0.20;;;5.30;99.90;;;4.58;100.00;95799.59;4988217;28;20029;-52
2023/01/09 05:11:55;;;;;;;1.17;0.22;;;5.30;99.90;;;4.58;100.00;95799.59;4991177;28;20445;-52
2023/01/09 05:14:21;;;;;;;1.90;0.30;;;5.40;99.90;;;4.63;100.00;95828.16;4987233;28;20029;-51
2023/01/09 05:16:46;;;;;;;1.25;0.25;;;5.40;99.90;;;4.58;100.00;95832.72;4990035;28;20033;-50
2023/01/09 05:19:12;;;;;;;0.80;0.20;;;5.30;99.90;;;4.59;100.00;95852.66;4991544;28;20509;-51
2023/01/09 05:21:38;;;;;;;1.15;0.20;;;5.30;99.90;;;4.56;100.00;95845.81;4996303;28;20111;-50
2023/01/09 05:24:04;;;;;;;2.58;0.32;;;5.30;99.90;;;4.52;100.00;95841.63;5005879;28;21166;-51
2023/01/09 05:26:30;;;;;;;0.20;0.20;;;5.30;99.90;;;4.52;100.00;95853.81;5001868;28;20052;-50
2023/01/09 05:28:56;;;;;;;0.63;0.40;;;5.30;99.90;;;4.53;100.00;95856.38;4996337;28;20045;-48
2023/01/09 05:31:24;;;;;;;2.05;0.38;;;5.30;99.90;;;4.45;100.00;95863.66;5008908;28;20029;-49
2023/01/09 05:33:50;;;;;;;1.55;0.50;;;5.20;99.90;;;4.44;100.00;95874.16;5006497;28;20038;-50
2023/01/09 05:36:16;;;;;;;0.65;0.30;;;5.20;99.90;;;4.35;100.00;95888.38;5004490;28;20389;-47
2023/01/09 05:38:42;;;;;;;2.92;0.43;;;5.10;99.90;;;4.17;100.00;95885.53;5005168;28;20585;-47
2023/01/09 05:41:08;;;;;;;3.65;0.43;;;5.00;99.90;;;4.16;100.00;95891.66;5002796;28;20041;-47
2023/01/09 05:43:33;;;;;;;2.33;0.35;;;4.90;99.90;;;4.05;100.00;95908.59;5014320;28;20034;-51
2023/01/09 05:45:59;;;;;;;3.25;0.50;;;4.80;99.90;;;3.96;100.00;95901.94;5003966;28;20753;-50
2023/01/09 05:48:25;;;;;;;0.68;0.50;;;4.70;99.90;;;3.80;100.00;95906.81;5011004;28;20045;-48
2023/01/09 05:50:51;;;;;;;0.63;0.40;;;4.60;99.90;;;3.85;100.00;95920.56;5010617;28;20022;-48
2023/01/09 05:53:16;;;;;;;3.20;0.45;;;4.60;99.90;;;3.78;100.00;95919.91;5013269;28;20049;-49
2023/01/09 05:55:42;;;;;;;3.00;0.50;;;4.50;99.90;;;3.59;100.00;95903.22;5008781;28;20481;-48
2023/01/09 05:58:08;;;;;;;0.75;0.30;;;4.50;99.90;;;3.73;100.00;95934.00;5015503;28;20115;-49
2023/01/09 06:00:34;;;;;;;2.65;0.30;;;4.40;99.90;;;3.65;100.00;95936.03;5007980;28;20034;-50
2023/01/09 06:02:59;;;;;;;0.63;0.60;;;4.40;99.90;;;3.54;100.00;95937.22;5016942;28;20038;-51
2023/01/09 06:05:25;;;;;;;1.55;0.50;;;4.30;99.90;;;3.43;100.00;95941.94;5013828;28;20033;-49
2023/01/09 06:07:51;;;;;;;2.33;0.32;;;4.20;99.90;;;3.35;100.00;95943.94;5007830;28;20042;-51
2023/01/09 06:10:16;;;;;;;1.50;0.40;;;4.10;99.90;;;3.30;100.00;95938.84;5009362;28;20563;-47
2023/01/09 06:12:48;;;;;;;0.80;0.40;;;4.00;99.90;;;3.23;100.00;95926.91;5016271;28;20064;-48
2023/01/09 06:15:16;;;;;;;0.83;0.30;;;4.00;99.90;;;3.16;100.00;95925.41;5012987;28;20029;-52
2023/01/09 06:17:43;;;;;;;1.30;0.30;;;3.90;99.90;;;3.09;100.00;95919.56;5009089;28;20078;-49
2023/01/09 06:20:10;;;;;;;0.65;0.30;;;3.90;99.90;;;3.00;100.00;95927.66;5010246;28;20036;-51
2023/01/09 06:22:36;;;;;;;1.15;0.35;;;3.80;99.90;;;2.91;100.00;95936.59;5007590;28;20047;-50
2023/01/09 06:25:02;;;;;;;1.95;0.32;;;3.70;99.90;;;2.84;100.00;95937.69;4989660;28;20424;-50
2023/01/09 06:27:27;;;;;;;5.38;0.52;;;3.60;99.90;;;2.76;100.00;95939.66;5012295;28;20029;-53
2023/01/09 06:29:53;;;;;;;1.92;0.38;;;3.60;99.90;;;2.72;100.00;95936.28;4995476;28;20039;-52
2023/01/09 06:32:19;;;;;;;3.13;0.50;;;3.60;99.90;;;2.74;100.00;95938.84;5007618;28;20572;-50
2023/01/09 06:34:44;;;;;;;2.08;0.57;;;3.50;99.90;;;2.72;100.00;95946.69;5011873;28;20364;-50
2023/01/09 06:37:10;;;;;;;1.10;0.50;;;3.50;99.90;;;2.70;100.00;95953.69;5005756;28;20021;-51
2023/01/09 06:39:36;;;;;;;1.92;0.60;;;3.50;99.90;;;2.66;100.00;95946.88;5003093;28;20108;-50
2023/01/09 06:42:02;;;;;;;0.77;0.40;;;3.50;99.90;;;2.69;100.00;95959.78;5008784;28;20556;-51
2023/01/09 06:44:27;;;;;;;1.00;0.30;;;3.50;99.90;;;2.65;100.00;95960.78;5006897;28;20466;-50
2023/01/09 06:46:53;;;;;;;1.83;0.60;;;3.50;99.90;;;2.67;100.00;95970.28;5004388;28;20354;-51
2023/01/09 06:49:22;;;;;;;1.17;0.57;;;3.50;99.90;;;2.70;100.00;95977.13;5010864;28;20049;-50
2023/01/09 06:51:49;;;;;;;2.42;0.57;;;3.50;99.90;;;2.78;100.00;95971.69;5007515;28;20037;-49
2023/01/09 06:54:19;;;;;;;1.50;0.40;;;3.60;99.90;;;2.80;100.00;95964.69;5010537;28;20895;-53
2023/01/09 06:56:45;;;;;;;1.52;0.60;;;3.60;99.90;;;2.89;100.00;95972.25;5007136;28;20398;-50
2023/01/09 06:59:11;;;;;;;4.35;0.52;;;3.70;99.90;;;2.97;100.00;95977.22;4991543;28;20064;-52
2023/01/09 07:01:38;;;;;;;1.48;0.63;;;3.80;99.90;;;3.04;100.00;95976.97;5008421;28;20034;-49
2023/01/09 07:04:05;;;;;;;4.10;0.98;;;3.80;99.90;;;3.11;100.00;95980.25;5014054;28;20029;-51
2023/01/09 07:06:32;;;;;;;3.85;0.70;;;3.90;99.90;;;3.12;100.00;95974.13;5002540;28;20048;-51
2023/01/09 07:08:58;;;;;;;6.03;0.70;;;3.90;99.90;;;3.15;100.00;95973.22;5009173;28;20453;-52
2023/01/09 07:11:23;;;;;;;0.68;0.30;;;3.90;99.90;;;3.24;100.00;95975.53;5011651;28;20030;-49
2023/01/09 07:13:49;;;;;;;1.45;0.45;;;4.00;99.90;;;3.22;100.00;95970.38;5008889;28;20033;-49
2023/01/09 07:16:15;;;;;;;5.22;0.70;;;4.00;99.90;;;3.20;100.00;95971.31;5006140;28;20034;-49
2023/01/09 07:18:40;;;;;;;3.55;0.65;;;4.00;99.90;;;3.15;100.00;95975.81;5000165;28;20341;-53
2023/01/09 07:21:07;;;;;;;3.10;0.40;;;4.00;99.90;;;3.07;100.00;95978.66;4994709;28;20033;-48
2023/01/09 07:23:33;;;;;;;2.67;0.60;;;3.90;99.90;;;2.97;100.00;95975.47;4992466;28;20034;-54
2023/01/09 07:25:59;;;;;;;3.40;0.98;;;3.80;99.90;;;2.96;100.00;95986.78;4996967;28;20034;-51
2023/01/09 07:28:25;;;;;;;7.95;2.25;;;3.80;99.90;;;3.00;100.00;95990.16;4970420;28;20107;-52
2023/01/09 07:30:51;;;;;;;3.97;1.08;;;3.80;99.90;;;3.15;100.00;95988.84;4998024;28;20041;-51
2023/01/09 07:33:17;;;;;;;3.45;1.05;;;3.90;99.90;;;3.28;100.00;95977.13;5007861;28;20029;-52
2023/01/09 07:35:42;;;;;;;2.33;0.57;;;4.10;99.90;;;3.39;100.00;95989.81;4996525;28;20439;-51
2023/01/09 07:38:08;;;;;;;1.70;0.52;;;4.20;99.90;;;3.43;100.00;95996.69;4986697;28;20185;-51
2023/01/09 07:40:34;;;;;;;4.35;0.80;;;4.20;99.90;;;3.45;100.00;95981.84;4985368;28;21825;-52
2023/01/09 07:42:59;;;;;;;2.95;0.80;;;4.20;99.90;;;3.47;100.00;95979.19;4989873;28;20136;-52
2023/01/09 07:45:25;;;;;;;2.22;0.82;;;4.20;99.90;;;3.44;100.00;95974.91;4979288;28;21042;-50
2023/01/09 07:47:51;;;;;;;4.47;0.68;;;4.30;99.90;;;3.48;100.00;95984.31;4988657;28;20933;-52
2023/01/09 07:50:18;;;;;;;4.07;1.00;;;4.30;99.90;;;3.47;100.00;95985.25;4990291;28;20672;-52
2023/01/09 07:52:45;;;;;;;2.22;0.60;;;4.20;99.90;;;3.42;100.00;95980.16;4996672;28;20827;-52
2023/01/09 07:55:11;;;;;;;2.85;0.50;;;4.20;99.90;;;3.41;100.00;95985.41;4980756;28;20033;-52
2023/01/09 07:57:37;;;;;;;1.67;0.60;;;4.10;99.90;;;3.40;100.00;95991.53;4990221;28;20045;-51
2023/01/09 08:00:05;;;;;;;1.58;0.55;;;4.20;99.90;;;3.43;100.00;95981.03;4990821;28;20175;-51
2023/01/09 08:02:32;;;;;;;3.97;0.80;;;4.20;99.90;;;3.36;100.00;96001.22;4994673;28;20041;-48
2023/01/09 08:04:58;;;;;;;3.35;0.60;;;4.20;99.90;;;3.37;100.00;95996.84;4998265;28;20033;-51
2023/01/09 08:07:23;;;;;;;4.15;0.63;;;4.10;99.90;;;3.38;100.00;96001.16;5008439;28;20030;-51
2023/01/09 08:09:49;;;;;;;0.63;0.40;;;4.10;99.90;;;3.46;100.00;96000.94;5011016;28;20033;-48
2023/01/09 08:12:15;;;;;;;2.13;0.65;;;4.20;99.90;;;3.46;100.00;96003.53;5009229;28;20057;-48
2023/01/09 08:14:40;;;;;;;1.70;0.45;;;4.20;99.90;;;3.54;100.00;96017.19;5011138;28;20567;-51
2023/01/09 08:17:08;;;;;;;2.03;0.73;;;4.30;99.90;;;3.66;100.00;96010.72;5012976;28;20401;-50
2023/01/09 08:19:33;;;;;;;1.52;0.70;;;4.40;99.90;;;3.79;100.00;96020.72;5016856;28;20033;-51
2023/01/09 08:21:59;;;;;;;3.10;0.57;;;4.60;99.90;;;3.98;100.00;96025.31;5012003;28;20230;-52
2023/01/09 08:24:25;;;;;;;1.88;0.70;;;4.70;99.90;;;4.17;100.00;96034.25;5008740;28;21804;-49
2023/01/09 08:26:51;;;;;;;1.58;0.60;;;4.90;99.90;;;4.30;100.00;96026.00;5009677;28;20087;-49
2023/01/09 08:29:16;;;;;;;2.50;0.80;;;5.00;99.90;;;4.36;100.00;96016.22;5004943;28;20049;-51
2023/01/09 08:31:42;;;;;;;3.42;0.70;;;5.10;99.90;;;4.39;100.00;96021.31;5002815;28;20489;-51
2023/01/09 08:34:07;;;;;;;4.88;0.55;;;5.10;99.90;;;4.40;100.00;96014.34;5050096;22;20095;-39
2023/01/09 08:36:33;;;;;;;4.60;0.82;;;5.10;99.90;;;4.37;100.00;96009.22;5051173;28;20052;-39
2023/01/09 08:38:59;;;;;;;3.55;0.50;;;5.10;99.90;;;4.37;100.00;96023.13;5053680;28;20033;-39
2023/01/09 08:47:05;;;;;;;2.40;0.60;;;5.10;99.90;;;4.31;100.00;96025.13;5053054;28;20098;-39
2023/01/09 08:49:36;;;;;;;2.42;0.68;;;5.10;99.90;;;4.37;100.00;96022.28;5033804;28;20481;-39
2023/01/09 08:52:03;;;;;;;2.20;0.70;;;5.20;99.90;;;4.42;100.00;96016.91;5045480;28;20075;-39
2023/01/09 08:54:29;;;;;;;2.78;0.80;;;5.20;99.90;;;4.42;100.00;96033.41;5041921;28;20644;-39
2023/01/09 08:56:54;;;;;;;3.05;1.10;;;5.20;99.90;;;4.41;100.00;96021.25;5044212;28;20021;-39
2023/01/09 08:59:20;;;;;;;2.83;0.88;;;5.20;99.90;;;4.45;100.00;96022.00;5049022;28;20031;-39
2023/01/09 09:01:46;;;;;;;6.85;0.65;;;5.20;99.90;;;4.46;100.00;96037.63;5048667;28;20041;-39
2023/01/09 09:04:12;;;;;;;6.70;0.90;;;5.30;99.90;;;4.48;100.00;96024.53;5035376;28;20062;-39
2023/01/09 09:06:37;;;;;;;2.45;0.75;;;5.30;99.90;;;4.53;100.00;96028.69;5052409;28;20469;-38
2023/01/09 09:09:05;;;;;;;2.45;0.50;;;5.30;99.90;;;4.59;100.00;96036.31;5055099;28;20031;-39
2023/01/09 09:11:32;;;;;;;3.45;0.85;;;5.30;99.90;;;4.47;100.00;96012.38;5034897;28;20025;-38
2023/01/09 09:13:59;;;;;;;3.78;0.90;;;5.40;99.90;;;4.68;100.00;96036.88;5046237;28;20052;-39
2023/01/09 09:16:26;;;;;;;6.80;0.77;;;5.40;99.90;;;4.67;100.00;96028.19;5043809;28;20025;-38
2023/01/09 09:18:52;;;;;;;3.17;0.68;;;5.50;99.90;;;4.66;100.00;96026.47;5051090;28;20028;-38
2023/01/09 09:21:19;;;;;;;2.63;0.75;;;5.50;99.90;;;4.67;100.00;96033.41;5053209;28;20040;-38
2023/01/09 09:23:45;;;;;;;4.95;0.70;;;5.50;99.90;;;4.67;100.00;96024.75;5048765;28;20291;-38
2023/01/09 09:26:11;;;;;;;2.33;0.55;;;5.50;99.90;;;4.74;100.00;96034.06;5049780;28;20391;-38
2023/01/09 09:28:37;;;;;;;5.43;0.88;;;5.50;99.90;;;4.81;100.00;96034.66;5049332;28;20070;-38
2023/01/09 09:31:07;;;;;;;2.80;0.80;;;5.60;99.90;;;4.80;100.00;96035.59;5047427;28;20063;-38
2023/01/09 09:33:32;;;;;;;4.32;0.98;;;5.60;99.90;;;4.84;100.00;96032.81;5045642;28;20037;-38
2023/01/09 09:35:59;;;;;;;2.30;0.68;;;5.60;99.90;;;4.83;100.00;96041.56;5050454;28;20088;-38
2023/01/09 09:38:24;;;;;;;3.58;0.70;;;5.60;99.90;;;4.84;100.00;96037.19;5046630;28;20029;-39
2023/01/09 09:44:41;;;;;;;2.70;0.68;;;5.70;99.90;;;4.97;100.00;96049.75;5043378;28;20086;-38
2023/01/09 09:47:27;;;;;;;2.72;0.75;;;5.90;99.90;;;5.26;100.00;96052.22;5047390;28;20101;-39
2023/01/09 09:50:18;;;;;;;4.13;0.75;;;6.00;99.90;;;5.42;100.00;96066.41;5042680;28;20072;-39
2023/01/09 09:52:58;;;;;;;3.75;0.80;;;6.20;99.90;;;5.63;100.00;96061.25;5046988;28;20416;-39
2023/01/09 09:55:30;;;;;;;2.25;0.70;;;6.40;99.90;;;5.78;100.00;96062.41;5029675;28;20063;-39
2023/01/09 09:58:00;;;;;;;2.47;1.00;;;6.60;99.90;;;6.04;100.00;96071.88;5022612;28;20032;-39
2023/01/09 10:00:26;;;;;;;2.08;0.65;;;6.70;99.90;;;6.23;100.00;96059.75;5031598;28;20433;-39
2023/01/09 10:03:37;;;;;;;3.00;0.73;;;7.00;99.90;;;6.41;100.00;96062.53;5048389;28;20190;-39
2023/01/09 10:06:35;;;;;;;1.80;0.68;;;7.20;99.90;;;6.63;100.00;96063.31;4969730;28;20039;-39
2023/01/09 10:09:27;;;;;;;2.25;0.68;;;7.40;99.90;;;6.81;100.00;96050.34;5046899;28;20116;-39
2023/01/09 10:12:27;;;;;;;2.53;0.85;;;7.50;99.90;;;6.94;100.00;96046.25;5050210;28;20029;-39
2023/01/09 10:15:06;;;;;;;4.00;0.57;;;7.70;99.90;;;7.08;100.00;96048.28;5034098;28;20051;-39
2023/01/09 10:17:58;;;;;;;4.57;0.88;;;7.90;99.90;;;7.13;100.00;96046.31;5037928;28;20033;-39
2023/01/09 10:20:30;;;;;;;2.75;0.77;;;7.90;99.90;;;7.29;100.00;96037.75;5048983;28;20549;-39
2023/01/09 10:23:32;;;;;;;3.63;0.80;;;8.00;99.90;;;7.49;100.00;96031.59;5056673;28;20040;-39
2023/01/09 10:26:16;;;;;;;3.28;0.90;;;8.20;99.90;;;7.59;100.00;96033.72;5050870;28;20140;-39
2023/01/09 10:29:18;;;;;;;1.98;0.80;;;8.30;99.90;;;7.68;100.00;96032.44;5033065;28;20043;-39
2023/01/09 10:32:28;;;;;;;4.70;0.90;;;8.40;99.90;;;7.76;100.00;96032.91;5053992;28;20040;-39
2023/01/09 10:35:18;;;;;;;4.97;1.30;;;8.50;99.90;;;7.60;100.00;96024.91;5054907;28;20072;-39
2023/01/09 10:37:46;;;;;;;4.45;0.90;;;8.40;99.90;;;7.56;100.00;96022.50;5043859;28;20041;-39
2023/01/09 10:40:21;;;;;;;4.60;0.82;;;8.40;99.90;;;7.53;100.00;96022.66;5028516;28;20104;-40
2023/01/09 10:42:52;;;;;;;4.25;0.93;;;8.30;99.90;;;7.50;100.00;96017.53;5050071;28;20464;-39
2023/01/09 10:45:49;;;;;;;3.28;0.80;;;8.30;99.90;;;7.54;100.00;96019.13;5039155;28;20071;-40
2023/01/09 10:48:35;;;;;;;3.17;0.82;;;8.20;99.90;;;7.57;100.00;96013.69;5038853;28;20071;-39
2023/01/09 10:51:13;;;;;;;4.85;2.20;;;8.30;99.90;;;7.52;100.00;96011.31;5041725;28;20524;-40
2023/01/09 10:53:45;;;;;;;2.20;1.00;;;8.30;99.90;;;7.59;100.00;96006.59;5029244;28;20032;-39